sensor_id;sensor_type;location;lat;lon;timestamp;temperature;humidity
69503;SHT31;56704;54.242;12.442;2023-04-01T00:01:53;5.51;99.82
69503;SHT31;56704;54.242;12.442;2023-04-01T00:04:19;5.47;99.61
69503;SHT31;56704;54.242;12.442;2023-04-01T00:06:46;5.45;99.78
69503;SHT31;56704;54.242;12.442;2023-04-01T00:09:14;5.39;99.55
69503;SHT31;56704;54.242;12.442;2023-04-01T00:11:40;5.35;99.55
69503;SHT31;56704;54.242;12.442;2023-04-01T00:14:07;5.39;99.65
69503;SHT31;56704;54.242;12.442;2023-04-01T00:16:35;5.39;99.88
69503;SHT31;56704;54.242;12.442;2023-04-01T00:19:02;5.34;99.52
69503;SHT31;56704;54.242;12.442;2023-04-01T00:21:29;5.30;99.33
69503;SHT31;56704;54.242;12.442;2023-04-01T00:23:56;5.27;99.51
69503;SHT31;56704;54.242;12.442;2023-04-01T00:26:24;5.28;99.57
69503;SHT31;56704;54.242;12.442;2023-04-01T00:28:51;5.27;99.72
69503;SHT31;56704;54.242;12.442;2023-04-01T00:31:18;5.27;99.74
69503;SHT31;56704;54.242;12.442;2023-04-01T00:33:47;5.28;99.81
69503;SHT31;56704;54.242;12.442;2023-04-01T00:36:15;5.21;99.62
69503;SHT31;56704;54.242;12.442;2023-04-01T00:38:43;5.23;99.80
69503;SHT31;56704;54.242;12.442;2023-04-01T00:41:10;5.20;99.68
69503;SHT31;56704;54.242;12.442;2023-04-01T00:43:39;5.24;99.83
69503;SHT31;56704;54.242;12.442;2023-04-01T00:46:06;5.18;99.31
69503;SHT31;56704;54.242;12.442;2023-04-01T00:48:35;5.16;99.50
69503;SHT31;56704;54.242;12.442;2023-04-01T00:51:06;5.08;99.30
69503;SHT31;56704;54.242;12.442;2023-04-01T00:53:37;5.11;99.60
69503;SHT31;56704;54.242;12.442;2023-04-01T00:56:07;5.00;99.38
69503;SHT31;56704;54.242;12.442;2023-04-01T00:58:40;5.00;99.47
69503;SHT31;56704;54.242;12.442;2023-04-01T01:01:08;4.99;99.54
69503;SHT31;56704;54.242;12.442;2023-04-01T01:03:35;4.93;99.27
69503;SHT31;56704;54.242;12.442;2023-04-01T01:06:14;4.86;99.31
69503;SHT31;56704;54.242;12.442;2023-04-01T01:09:03;4.89;99.58
69503;SHT31;56704;54.242;12.442;2023-04-01T01:11:37;4.90;99.60
69503;SHT31;56704;54.242;12.442;2023-04-01T01:14:12;4.86;99.41
69503;SHT31;56704;54.242;12.442;2023-04-01T01:16:43;4.89;99.79
69503;SHT31;56704;54.242;12.442;2023-04-01T01:19:25;4.84;99.70
69503;SHT31;56704;54.242;12.442;2023-04-01T01:22:08;4.87;99.98
69503;SHT31;56704;54.242;12.442;2023-04-01T01:24:53;4.86;99.86
69503;SHT31;56704;54.242;12.442;2023-04-01T01:27:22;4.83;99.90
69503;SHT31;56704;54.242;12.442;2023-04-01T01:33:01;4.80;99.64
69503;SHT31;56704;54.242;12.442;2023-04-01T01:35:37;4.72;99.33
69503;SHT31;56704;54.242;12.442;2023-04-01T01:38:07;4.70;99.44
69503;SHT31;56704;54.242;12.442;2023-04-01T01:40:36;4.69;99.51
69503;SHT31;56704;54.242;12.442;2023-04-01T01:43:06;4.62;99.43
69503;SHT31;56704;54.242;12.442;2023-04-01T01:45:36;4.63;99.43
69503;SHT31;56704;54.242;12.442;2023-04-01T01:48:06;4.62;99.44
69503;SHT31;56704;54.242;12.442;2023-04-01T01:50:36;4.59;99.32
69503;SHT31;56704;54.242;12.442;2023-04-01T01:53:08;4.56;99.39
69503;SHT31;56704;54.242;12.442;2023-04-01T01:55:36;4.58;99.30
69503;SHT31;56704;54.242;12.442;2023-04-01T01:58:07;4.55;99.27
69503;SHT31;56704;54.242;12.442;2023-04-01T02:00:36;4.53;99.68
69503;SHT31;56704;54.242;12.442;2023-04-01T02:03:03;4.56;99.56
69503;SHT31;56704;54.242;12.442;2023-04-01T02:05:31;4.50;99.52
69503;SHT31;56704;54.242;12.442;2023-04-01T02:08:03;4.50;99.79
69503;SHT31;56704;54.242;12.442;2023-04-01T02:10:35;4.48;99.66
69503;SHT31;56704;54.242;12.442;2023-04-01T02:13:09;4.50;99.94
69503;SHT31;56704;54.242;12.442;2023-04-01T02:15:41;4.55;99.89
69503;SHT31;56704;54.242;12.442;2023-04-01T02:18:09;4.53;99.59
69503;SHT31;56704;54.242;12.442;2023-04-01T02:20:37;4.49;99.68
69503;SHT31;56704;54.242;12.442;2023-04-01T02:23:07;4.46;99.61
69503;SHT31;56704;54.242;12.442;2023-04-01T02:25:37;4.46;99.85
69503;SHT31;56704;54.242;12.442;2023-04-01T02:28:05;4.46;99.87
69503;SHT31;56704;54.242;12.442;2023-04-01T02:30:35;4.48;99.85
69503;SHT31;56704;54.242;12.442;2023-04-01T02:33:03;4.50;99.81
69503;SHT31;56704;54.242;12.442;2023-04-01T02:35:33;4.41;99.55
69503;SHT31;56704;54.242;12.442;2023-04-01T02:38:01;4.44;99.82
69503;SHT31;56704;54.242;12.442;2023-04-01T02:40:29;4.38;99.71
69503;SHT31;56704;54.242;12.442;2023-04-01T02:42:56;4.35;99.38
69503;SHT31;56704;54.242;12.442;2023-04-01T02:45:22;4.32;99.27
69503;SHT31;56704;54.242;12.442;2023-04-01T02:47:49;4.29;99.46
69503;SHT31;56704;54.242;12.442;2023-04-01T02:50:16;4.32;99.54
69503;SHT31;56704;54.242;12.442;2023-04-01T02:52:42;4.29;99.47
69503;SHT31;56704;54.242;12.442;2023-04-01T02:55:09;4.28;99.52
69503;SHT31;56704;54.242;12.442;2023-04-01T02:57:37;4.27;99.42
69503;SHT31;56704;54.242;12.442;2023-04-01T03:00:04;4.24;99.37
69503;SHT31;56704;54.242;12.442;2023-04-01T03:02:36;4.22;99.54
69503;SHT31;56704;54.242;12.442;2023-04-01T03:05:04;4.22;99.50
69503;SHT31;56704;54.242;12.442;2023-04-01T03:07:31;4.19;99.24
69503;SHT31;56704;54.242;12.442;2023-04-01T03:09:57;4.19;99.70
69503;SHT31;56704;54.242;12.442;2023-04-01T03:12:24;4.17;99.49
69503;SHT31;56704;54.242;12.442;2023-04-01T03:14:52;4.18;99.77
69503;SHT31;56704;54.242;12.442;2023-04-01T03:17:18;4.19;99.91
69503;SHT31;56704;54.242;12.442;2023-04-01T03:19:45;4.19;99.91
69503;SHT31;56704;54.242;12.442;2023-04-01T03:22:11;4.19;99.65
69503;SHT31;56704;54.242;12.442;2023-04-01T03:24:38;4.19;99.64
69503;SHT31;56704;54.242;12.442;2023-04-01T03:27:05;4.19;99.73
69503;SHT31;56704;54.242;12.442;2023-04-01T03:29:31;4.15;99.67
69503;SHT31;56704;54.242;12.442;2023-04-01T03:31:59;4.15;99.65
69503;SHT31;56704;54.242;12.442;2023-04-01T03:34:26;4.17;99.73
69503;SHT31;56704;54.242;12.442;2023-04-01T03:36:52;4.17;99.58
69503;SHT31;56704;54.242;12.442;2023-04-01T03:39:19;4.19;99.71
69503;SHT31;56704;54.242;12.442;2023-04-01T03:41:46;4.15;99.61
69503;SHT31;56704;54.242;12.442;2023-04-01T03:44:13;4.18;99.91
69503;SHT31;56704;54.242;12.442;2023-04-01T03:46:39;4.18;99.84
69503;SHT31;56704;54.242;12.442;2023-04-01T03:49:08;4.18;99.70
69503;SHT31;56704;54.242;12.442;2023-04-01T03:51:37;4.14;99.73
69503;SHT31;56704;54.242;12.442;2023-04-01T03:54:03;4.15;99.67
69503;SHT31;56704;54.242;12.442;2023-04-01T03:56:30;4.14;99.59
69503;SHT31;56704;54.242;12.442;2023-04-01T03:58:56;4.15;99.53
69503;SHT31;56704;54.242;12.442;2023-04-01T04:01:23;4.09;99.20
69503;SHT31;56704;54.242;12.442;2023-04-01T04:03:50;4.08;99.17
69503;SHT31;56704;54.242;12.442;2023-04-01T04:06:19;4.07;99.05
69503;SHT31;56704;54.242;12.442;2023-04-01T04:08:46;4.07;99.28
69503;SHT31;56704;54.242;12.442;2023-04-01T04:11:13;4.07;99.01
69503;SHT31;56704;54.242;12.442;2023-04-01T04:13:40;4.11;99.14
69503;SHT31;56704;54.242;12.442;2023-04-01T04:16:06;4.08;99.10
69503;SHT31;56704;54.242;12.442;2023-04-01T04:18:33;4.08;99.33
69503;SHT31;56704;54.242;12.442;2023-04-01T04:21:00;4.09;99.40
69503;SHT31;56704;54.242;12.442;2023-04-01T04:23:28;4.07;99.30
69503;SHT31;56704;54.242;12.442;2023-04-01T04:26:01;4.04;99.30
69503;SHT31;56704;54.242;12.442;2023-04-01T04:28:28;4.11;99.51
69503;SHT31;56704;54.242;12.442;2023-04-01T04:30:55;4.09;99.26
69503;SHT31;56704;54.242;12.442;2023-04-01T04:33:22;4.08;99.43
69503;SHT31;56704;54.242;12.442;2023-04-01T04:35:49;4.09;99.53
69503;SHT31;56704;54.242;12.442;2023-04-01T04:38:16;4.08;99.40
69503;SHT31;56704;54.242;12.442;2023-04-01T04:40:44;4.09;99.29
69503;SHT31;56704;54.242;12.442;2023-04-01T04:43:12;4.05;99.12
69503;SHT31;56704;54.242;12.442;2023-04-01T04:45:39;4.07;99.27
69503;SHT31;56704;54.242;12.442;2023-04-01T04:48:07;4.05;99.23
69503;SHT31;56704;54.242;12.442;2023-04-01T04:50:34;4.05;99.09
69503;SHT31;56704;54.242;12.442;2023-04-01T04:53:01;4.07;99.36
69503;SHT31;56704;54.242;12.442;2023-04-01T04:55:27;4.04;99.37
69503;SHT31;56704;54.242;12.442;2023-04-01T04:57:55;4.07;99.42
69503;SHT31;56704;54.242;12.442;2023-04-01T05:00:22;4.05;99.33
69503;SHT31;56704;54.242;12.442;2023-04-01T05:02:49;4.05;99.14
69503;SHT31;56704;54.242;12.442;2023-04-01T05:05:15;4.07;99.24
69503;SHT31;56704;54.242;12.442;2023-04-01T05:07:42;4.05;99.07
69503;SHT31;56704;54.242;12.442;2023-04-01T05:10:09;4.04;99.09
69503;SHT31;56704;54.242;12.442;2023-04-01T05:12:36;4.02;98.96
69503;SHT31;56704;54.242;12.442;2023-04-01T05:15:06;4.07;99.34
69503;SHT31;56704;54.242;12.442;2023-04-01T05:17:33;4.07;99.24
69503;SHT31;56704;54.242;12.442;2023-04-01T05:20:00;4.05;99.15
69503;SHT31;56704;54.242;12.442;2023-04-01T05:22:27;4.07;99.06
69503;SHT31;56704;54.242;12.442;2023-04-01T05:24:54;4.07;99.28
69503;SHT31;56704;54.242;12.442;2023-04-01T05:27:21;4.05;99.29
69503;SHT31;56704;54.242;12.442;2023-04-01T05:29:47;4.07;99.25
69503;SHT31;56704;54.242;12.442;2023-04-01T05:32:16;4.07;99.01
69503;SHT31;56704;54.242;12.442;2023-04-01T05:34:42;4.07;99.20
69503;SHT31;56704;54.242;12.442;2023-04-01T05:37:09;4.05;99.08
69503;SHT31;56704;54.242;12.442;2023-04-01T05:39:36;4.05;99.32
69503;SHT31;56704;54.242;12.442;2023-04-01T05:42:06;4.09;99.36
69503;SHT31;56704;54.242;12.442;2023-04-01T05:44:33;4.11;99.27
69503;SHT31;56704;54.242;12.442;2023-04-01T05:46:59;4.11;99.42
69503;SHT31;56704;54.242;12.442;2023-04-01T05:49:27;4.08;99.40
69503;SHT31;56704;54.242;12.442;2023-04-01T05:51:54;4.12;99.28
69503;SHT31;56704;54.242;12.442;2023-04-01T05:54:20;4.08;99.20
69503;SHT31;56704;54.242;12.442;2023-04-01T05:56:47;4.12;99.27
69503;SHT31;56704;54.242;12.442;2023-04-01T05:59:14;4.09;98.93
69503;SHT31;56704;54.242;12.442;2023-04-01T06:01:41;4.09;98.95
69503;SHT31;56704;54.242;12.442;2023-04-01T06:04:12;4.05;98.87
69503;SHT31;56704;54.242;12.442;2023-04-01T06:06:41;4.05;98.85
69503;SHT31;56704;54.242;12.442;2023-04-01T06:09:14;4.05;99.02
69503;SHT31;56704;54.242;12.442;2023-04-01T06:11:51;4.07;98.95
69503;SHT31;56704;54.242;12.442;2023-04-01T06:14:29;4.04;98.89
69503;SHT31;56704;54.242;12.442;2023-04-01T06:17:06;4.05;99.09
69503;SHT31;56704;54.242;12.442;2023-04-01T06:19:40;4.07;99.41
69503;SHT31;56704;54.242;12.442;2023-04-01T06:25:52;4.07;99.42
69503;SHT31;56704;54.242;12.442;2023-04-01T06:28:45;4.04;99.12
69503;SHT31;56704;54.242;12.442;2023-04-01T06:31:26;4.05;98.96
69503;SHT31;56704;54.242;12.442;2023-04-01T06:34:10;4.01;99.09
69503;SHT31;56704;54.242;12.442;2023-04-01T06:36:57;4.02;99.28
69503;SHT31;56704;54.242;12.442;2023-04-01T06:39:49;4.04;99.10
69503;SHT31;56704;54.242;12.442;2023-04-01T06:42:39;3.98;98.67
69503;SHT31;56704;54.242;12.442;2023-04-01T06:45:20;4.02;98.91
69503;SHT31;56704;54.242;12.442;2023-04-01T06:48:01;4.02;98.87
69503;SHT31;56704;54.242;12.442;2023-04-01T06:50:32;4.02;98.82
69503;SHT31;56704;54.242;12.442;2023-04-01T06:53:06;4.01;98.46
69503;SHT31;56704;54.242;12.442;2023-04-01T06:55:41;3.99;98.31
69503;SHT31;56704;54.242;12.442;2023-04-01T06:58:18;4.01;99.04
69503;SHT31;56704;54.242;12.442;2023-04-01T07:00:48;3.97;98.67
69503;SHT31;56704;54.242;12.442;2023-04-01T07:03:20;3.98;99.01
69503;SHT31;56704;54.242;12.442;2023-04-01T07:05:47;3.95;99.13
69503;SHT31;56704;54.242;12.442;2023-04-01T07:08:18;3.93;98.94
69503;SHT31;56704;54.242;12.442;2023-04-01T07:10:50;3.93;99.26
69503;SHT31;56704;54.242;12.442;2023-04-01T07:13:22;3.94;99.30
69503;SHT31;56704;54.242;12.442;2023-04-01T07:15:57;3.98;99.17
69503;SHT31;56704;54.242;12.442;2023-04-01T07:18:30;3.97;99.23
69503;SHT31;56704;54.242;12.442;2023-04-01T07:20:59;3.99;99.37
69503;SHT31;56704;54.242;12.442;2023-04-01T07:23:31;4.08;99.36
69503;SHT31;56704;54.242;12.442;2023-04-01T07:26:00;4.05;99.12
69503;SHT31;56704;54.242;12.442;2023-04-01T07:28:31;4.02;99.22
69503;SHT31;56704;54.242;12.442;2023-04-01T07:31:07;4.01;99.16
69503;SHT31;56704;54.242;12.442;2023-04-01T07:33:39;3.97;99.04
69503;SHT31;56704;54.242;12.442;2023-04-01T07:36:13;3.97;98.90
69503;SHT31;56704;54.242;12.442;2023-04-01T07:38:52;3.93;99.21
69503;SHT31;56704;54.242;12.442;2023-04-01T07:41:30;3.98;99.09
69503;SHT31;56704;54.242;12.442;2023-04-01T07:44:07;3.94;98.91
69503;SHT31;56704;54.242;12.442;2023-04-01T07:46:49;3.88;99.04
69503;SHT31;56704;54.242;12.442;2023-04-01T07:49:22;3.87;98.71
69503;SHT31;56704;54.242;12.442;2023-04-01T07:51:56;3.81;98.72
69503;SHT31;56704;54.242;12.442;2023-04-01T07:54:29;3.76;98.30
69503;SHT31;56704;54.242;12.442;2023-04-01T07:57:03;3.71;98.56
69503;SHT31;56704;54.242;12.442;2023-04-01T07:59:37;3.71;98.48
69503;SHT31;56704;54.242;12.442;2023-04-01T08:02:17;3.71;98.28
69503;SHT31;56704;54.242;12.442;2023-04-01T08:04:56;3.73;98.39
69503;SHT31;56704;54.242;12.442;2023-04-01T08:07:30;3.77;98.22
69503;SHT31;56704;54.242;12.442;2023-04-01T08:10:02;3.76;98.19
69503;SHT31;56704;54.242;12.442;2023-04-01T08:12:43;3.76;97.72
69503;SHT31;56704;54.242;12.442;2023-04-01T08:15:19;3.77;97.69
69503;SHT31;56704;54.242;12.442;2023-04-01T08:17:57;3.80;97.68
69503;SHT31;56704;54.242;12.442;2023-04-01T08:20:29;3.83;97.68
69503;SHT31;56704;54.242;12.442;2023-04-01T08:23:00;3.80;97.24
69503;SHT31;56704;54.242;12.442;2023-04-01T08:25:33;3.81;97.57
69503;SHT31;56704;54.242;12.442;2023-04-01T08:28:11;3.77;97.20
69503;SHT31;56704;54.242;12.442;2023-04-01T08:30:41;3.78;97.47
69503;SHT31;56704;54.242;12.442;2023-04-01T08:33:14;3.81;97.01
69503;SHT31;56704;54.242;12.442;2023-04-01T08:35:48;3.76;96.36
69503;SHT31;56704;54.242;12.442;2023-04-01T08:38:20;3.80;97.03
69503;SHT31;56704;54.242;12.442;2023-04-01T08:41:00;3.80;97.24
69503;SHT31;56704;54.242;12.442;2023-04-01T08:43:45;3.81;96.91
69503;SHT31;56704;54.242;12.442;2023-04-01T08:46:22;3.86;97.23
69503;SHT31;56704;54.242;12.442;2023-04-01T08:52:18;3.84;96.76
69503;SHT31;56704;54.242;12.442;2023-04-01T08:57:56;3.81;96.52
69503;SHT31;56704;54.242;12.442;2023-04-01T09:00:30;3.80;96.33
69503;SHT31;56704;54.242;12.442;2023-04-01T09:06:12;3.78;96.20
69503;SHT31;56704;54.242;12.442;2023-04-01T09:09:01;3.73;95.68
69503;SHT31;56704;54.242;12.442;2023-04-01T09:11:42;3.78;96.32
69503;SHT31;56704;54.242;12.442;2023-04-01T09:14:33;3.81;96.28
69503;SHT31;56704;54.242;12.442;2023-04-01T09:17:28;3.80;95.65
69503;SHT31;56704;54.242;12.442;2023-04-01T09:22:57;3.84;95.66
69503;SHT31;56704;54.242;12.442;2023-04-01T09:25:53;3.84;95.58
69503;SHT31;56704;54.242;12.442;2023-04-01T09:28:28;3.87;95.38
69503;SHT31;56704;54.242;12.442;2023-04-01T09:31:21;3.87;95.47
69503;SHT31;56704;54.242;12.442;2023-04-01T09:34:27;3.83;94.78
69503;SHT31;56704;54.242;12.442;2023-04-01T09:37:13;3.83;95.78
69503;SHT31;56704;54.242;12.442;2023-04-01T09:39:51;3.84;94.77
69503;SHT31;56704;54.242;12.442;2023-04-01T09:42:37;3.80;94.34
69503;SHT31;56704;54.242;12.442;2023-04-01T09:45:17;3.88;95.30
69503;SHT31;56704;54.242;12.442;2023-04-01T09:47:57;3.86;94.96
69503;SHT31;56704;54.242;12.442;2023-04-01T09:50:35;3.93;94.97
69503;SHT31;56704;54.242;12.442;2023-04-01T09:53:17;3.97;95.34
69503;SHT31;56704;54.242;12.442;2023-04-01T09:59:14;3.99;94.14
69503;SHT31;56704;54.242;12.442;2023-04-01T10:01:57;4.04;94.72
69503;SHT31;56704;54.242;12.442;2023-04-01T10:08:11;4.05;93.43
69503;SHT31;56704;54.242;12.442;2023-04-01T10:11:15;4.08;93.30
69503;SHT31;56704;54.242;12.442;2023-04-01T10:14:10;4.11;93.37
69503;SHT31;56704;54.242;12.442;2023-04-01T10:17:17;4.09;93.00
69503;SHT31;56704;54.242;12.442;2023-04-01T10:20:15;4.08;92.73
69503;SHT31;56704;54.242;12.442;2023-04-01T10:26:26;4.17;93.80
69503;SHT31;56704;54.242;12.442;2023-04-01T10:29:12;4.18;93.06
69503;SHT31;56704;54.242;12.442;2023-04-01T10:38:18;4.24;92.41
69503;SHT31;56704;54.242;12.442;2023-04-01T10:41:14;4.27;93.09
69503;SHT31;56704;54.242;12.442;2023-04-01T10:47:26;4.34;92.78
69503;SHT31;56704;54.242;12.442;2023-04-01T10:50:15;4.32;92.91
69503;SHT31;56704;54.242;12.442;2023-04-01T10:53:11;4.32;92.73
69503;SHT31;56704;54.242;12.442;2023-04-01T10:56:07;4.28;91.68
69503;SHT31;56704;54.242;12.442;2023-04-01T10:58:50;4.27;91.91
69503;SHT31;56704;54.242;12.442;2023-04-01T11:05:04;4.24;91.42
69503;SHT31;56704;54.242;12.442;2023-04-01T11:10:58;4.28;92.70
69503;SHT31;56704;54.242;12.442;2023-04-01T11:17:10;4.25;91.38
69503;SHT31;56704;54.242;12.442;2023-04-01T11:20:01;4.25;91.99
69503;SHT31;56704;54.242;12.442;2023-04-01T11:25:46;4.25;91.23
69503;SHT31;56704;54.242;12.442;2023-04-01T11:28:27;4.25;91.87
69503;SHT31;56704;54.242;12.442;2023-04-01T11:34:17;4.31;90.97
69503;SHT31;56704;54.242;12.442;2023-04-01T11:36:59;4.29;91.15
69503;SHT31;56704;54.242;12.442;2023-04-01T11:39:34;4.31;91.90
69503;SHT31;56704;54.242;12.442;2023-04-01T11:42:14;4.29;91.15
69503;SHT31;56704;54.242;12.442;2023-04-01T11:44:48;4.27;90.44
69503;SHT31;56704;54.242;12.442;2023-04-01T11:47:30;4.28;91.65
69503;SHT31;56704;54.242;12.442;2023-04-01T11:50:21;4.32;90.71
69503;SHT31;56704;54.242;12.442;2023-04-01T11:53:05;4.37;90.09
69503;SHT31;56704;54.242;12.442;2023-04-01T11:55:42;4.37;89.88
69503;SHT31;56704;54.242;12.442;2023-04-01T11:58:26;4.37;90.35
69503;SHT31;56704;54.242;12.442;2023-04-01T12:01:04;4.31;91.41
69503;SHT31;56704;54.242;12.442;2023-04-01T12:03:46;4.28;91.26
69503;SHT31;56704;54.242;12.442;2023-04-01T12:06:21;4.34;90.91
69503;SHT31;56704;54.242;12.442;2023-04-01T12:08:54;4.32;90.51
69503;SHT31;56704;54.242;12.442;2023-04-01T12:11:29;4.28;89.99
69503;SHT31;56704;54.242;12.442;2023-04-01T12:14:05;4.28;90.89
69503;SHT31;56704;54.242;12.442;2023-04-01T12:16:46;4.32;90.06
69503;SHT31;56704;54.242;12.442;2023-04-01T12:19:23;4.42;90.20
69503;SHT31;56704;54.242;12.442;2023-04-01T12:22:12;4.45;90.87
69503;SHT31;56704;54.242;12.442;2023-04-01T12:24:48;4.41;90.04
69503;SHT31;56704;54.242;12.442;2023-04-01T12:27:26;4.41;89.40
69503;SHT31;56704;54.242;12.442;2023-04-01T12:30:14;4.41;89.43
69503;SHT31;56704;54.242;12.442;2023-04-01T12:32:49;4.41;89.05
69503;SHT31;56704;54.242;12.442;2023-04-01T12:35:24;4.42;90.07
69503;SHT31;56704;54.242;12.442;2023-04-01T12:38:08;4.41;90.16
69503;SHT31;56704;54.242;12.442;2023-04-01T12:41:03;4.44;89.62
69503;SHT31;56704;54.242;12.442;2023-04-01T12:44:12;4.37;89.18
69503;SHT31;56704;54.242;12.442;2023-04-01T12:46:53;4.39;89.63
69503;SHT31;56704;54.242;12.442;2023-04-01T12:49:38;4.32;89.80
69503;SHT31;56704;54.242;12.442;2023-04-01T12:52:14;4.29;89.29
69503;SHT31;56704;54.242;12.442;2023-04-01T12:55:03;4.27;88.65
69503;SHT31;56704;54.242;12.442;2023-04-01T13:00:45;4.15;88.95
69503;SHT31;56704;54.242;12.442;2023-04-01T13:06:22;4.07;88.06
69503;SHT31;56704;54.242;12.442;2023-04-01T13:08:57;4.07;88.62
69503;SHT31;56704;54.242;12.442;2023-04-01T13:11:36;4.07;88.52
69503;SHT31;56704;54.242;12.442;2023-04-01T13:14:27;4.04;89.57
69503;SHT31;56704;54.242;12.442;2023-04-01T13:17:04;4.07;88.97
69503;SHT31;56704;54.242;12.442;2023-04-01T13:19:38;4.08;88.63
69503;SHT31;56704;54.242;12.442;2023-04-01T13:22:11;4.14;89.64
69503;SHT31;56704;54.242;12.442;2023-04-01T13:24:45;4.11;87.66
69503;SHT31;56704;54.242;12.442;2023-04-01T13:27:21;4.07;87.67
69503;SHT31;56704;54.242;12.442;2023-04-01T13:30:01;4.04;87.42
69503;SHT31;56704;54.242;12.442;2023-04-01T13:32:35;4.07;87.64
69503;SHT31;56704;54.242;12.442;2023-04-01T13:35:14;4.02;88.50
69503;SHT31;56704;54.242;12.442;2023-04-01T13:37:54;4.04;88.76
69503;SHT31;56704;54.242;12.442;2023-04-01T13:40:33;3.98;87.60
69503;SHT31;56704;54.242;12.442;2023-04-01T13:43:07;3.97;88.20
69503;SHT31;56704;54.242;12.442;2023-04-01T13:45:50;3.95;88.25
69503;SHT31;56704;54.242;12.442;2023-04-01T13:48:31;3.90;87.52
69503;SHT31;56704;54.242;12.442;2023-04-01T13:51:19;3.90;88.68
69503;SHT31;56704;54.242;12.442;2023-04-01T13:57:00;3.84;88.10
69503;SHT31;56704;54.242;12.442;2023-04-01T13:59:47;3.87;88.06
69503;SHT31;56704;54.242;12.442;2023-04-01T14:02:40;3.80;88.34
69503;SHT31;56704;54.242;12.442;2023-04-01T14:05:32;3.70;88.01
69503;SHT31;56704;54.242;12.442;2023-04-01T14:08:13;3.74;87.91
69503;SHT31;56704;54.242;12.442;2023-04-01T14:10:50;3.70;88.58
69503;SHT31;56704;54.242;12.442;2023-04-01T14:13:30;3.76;89.09
69503;SHT31;56704;54.242;12.442;2023-04-01T14:16:07;3.74;89.25
69503;SHT31;56704;54.242;12.442;2023-04-01T14:18:45;3.73;88.89
69503;SHT31;56704;54.242;12.442;2023-04-01T14:21:27;3.66;87.98
69503;SHT31;56704;54.242;12.442;2023-04-01T14:24:06;3.63;87.17
69503;SHT31;56704;54.242;12.442;2023-04-01T14:26:57;3.55;87.23
69503;SHT31;56704;54.242;12.442;2023-04-01T14:29:33;3.53;88.54
69503;SHT31;56704;54.242;12.442;2023-04-01T14:32:10;3.49;89.50
69503;SHT31;56704;54.242;12.442;2023-04-01T14:34:47;3.46;88.53
69503;SHT31;56704;54.242;12.442;2023-04-01T14:37:49;3.47;89.70
69503;SHT31;56704;54.242;12.442;2023-04-01T14:40:28;3.46;87.92
69503;SHT31;56704;54.242;12.442;2023-04-01T14:43:00;3.49;88.48
69503;SHT31;56704;54.242;12.442;2023-04-01T14:45:44;3.47;89.39
69503;SHT31;56704;54.242;12.442;2023-04-01T14:48:21;3.50;89.03
69503;SHT31;56704;54.242;12.442;2023-04-01T14:50:51;3.49;87.46
69503;SHT31;56704;54.242;12.442;2023-04-01T14:53:26;3.49;87.80
69503;SHT31;56704;54.242;12.442;2023-04-01T14:55:55;3.50;87.09
69503;SHT31;56704;54.242;12.442;2023-04-01T14:58:23;3.47;87.04
69503;SHT31;56704;54.242;12.442;2023-04-01T15:01:06;3.53;87.94
69503;SHT31;56704;54.242;12.442;2023-04-01T15:03:40;3.56;87.29
69503;SHT31;56704;54.242;12.442;2023-04-01T15:09:17;3.55;88.19
69503;SHT31;56704;54.242;12.442;2023-04-01T15:11:57;3.56;88.95
69503;SHT31;56704;54.242;12.442;2023-04-01T15:14:57;3.60;88.06
69503;SHT31;56704;54.242;12.442;2023-04-01T15:17:48;3.56;87.03
69503;SHT31;56704;54.242;12.442;2023-04-01T15:20:56;3.49;87.03
69503;SHT31;56704;54.242;12.442;2023-04-01T15:23:37;3.44;85.94
69503;SHT31;56704;54.242;12.442;2023-04-01T15:26:23;3.44;86.41
69503;SHT31;56704;54.242;12.442;2023-04-01T15:29:03;3.43;86.65
69503;SHT31;56704;54.242;12.442;2023-04-01T15:31:37;3.40;86.42
69503;SHT31;56704;54.242;12.442;2023-04-01T15:34:23;3.40;86.15
69503;SHT31;56704;54.242;12.442;2023-04-01T15:36:56;3.40;86.51
69503;SHT31;56704;54.242;12.442;2023-04-01T15:39:36;3.44;86.84
69503;SHT31;56704;54.242;12.442;2023-04-01T15:42:15;3.44;87.01
69503;SHT31;56704;54.242;12.442;2023-04-01T15:44:58;3.49;86.78
69503;SHT31;56704;54.242;12.442;2023-04-01T15:47:33;3.49;85.80
69503;SHT31;56704;54.242;12.442;2023-04-01T15:50:26;3.44;84.89
69503;SHT31;56704;54.242;12.442;2023-04-01T15:53:05;3.42;84.73
69503;SHT31;56704;54.242;12.442;2023-04-01T15:55:39;3.39;85.33
69503;SHT31;56704;54.242;12.442;2023-04-01T15:58:26;3.40;85.19
69503;SHT31;56704;54.242;12.442;2023-04-01T16:01:07;3.43;85.01
69503;SHT31;56704;54.242;12.442;2023-04-01T16:03:40;3.42;83.77
69503;SHT31;56704;54.242;12.442;2023-04-01T16:12:15;3.32;82.76
69503;SHT31;56704;54.242;12.442;2023-04-01T16:14:52;3.28;82.99
69503;SHT31;56704;54.242;12.442;2023-04-01T16:17:39;3.30;83.13
69503;SHT31;56704;54.242;12.442;2023-04-01T16:20:18;3.29;83.05
69503;SHT31;56704;54.242;12.442;2023-04-01T16:22:52;3.22;83.50
69503;SHT31;56704;54.242;12.442;2023-04-01T16:25:31;3.28;82.84
69503;SHT31;56704;54.242;12.442;2023-04-01T16:28:13;3.26;82.40
69503;SHT31;56704;54.242;12.442;2023-04-01T16:30:45;3.26;83.13
69503;SHT31;56704;54.242;12.442;2023-04-01T16:33:19;3.25;82.55
69503;SHT31;56704;54.242;12.442;2023-04-01T16:35:53;3.23;83.54
69503;SHT31;56704;54.242;12.442;2023-04-01T16:38:24;3.18;83.60
69503;SHT31;56704;54.242;12.442;2023-04-01T16:41:04;3.20;83.90
69503;SHT31;56704;54.242;12.442;2023-04-01T16:43:38;3.19;83.44
69503;SHT31;56704;54.242;12.442;2023-04-01T16:46:32;3.18;85.21
69503;SHT31;56704;54.242;12.442;2023-04-01T16:49:29;3.18;84.21
69503;SHT31;56704;54.242;12.442;2023-04-01T16:52:05;3.16;84.32
69503;SHT31;56704;54.242;12.442;2023-04-01T16:54:42;3.15;83.58
69503;SHT31;56704;54.242;12.442;2023-04-01T16:57:19;3.08;84.11
69503;SHT31;56704;54.242;12.442;2023-04-01T16:59:53;3.11;84.14
69503;SHT31;56704;54.242;12.442;2023-04-01T17:02:23;3.11;84.32
69503;SHT31;56704;54.242;12.442;2023-04-01T17:04:59;3.07;82.76
69503;SHT31;56704;54.242;12.442;2023-04-01T17:07:41;3.04;82.69
69503;SHT31;56704;54.242;12.442;2023-04-01T17:10:25;2.99;82.10
69503;SHT31;56704;54.242;12.442;2023-04-01T17:13:06;2.98;82.91
69503;SHT31;56704;54.242;12.442;2023-04-01T17:15:41;2.95;83.12
69503;SHT31;56704;54.242;12.442;2023-04-01T17:18:14;2.94;84.20
69503;SHT31;56704;54.242;12.442;2023-04-01T17:20:48;2.97;84.44
69503;SHT31;56704;54.242;12.442;2023-04-01T17:23:24;2.94;84.70
69503;SHT31;56704;54.242;12.442;2023-04-01T17:26:05;2.97;83.87
69503;SHT31;56704;54.242;12.442;2023-04-01T17:28:45;2.87;82.39
69503;SHT31;56704;54.242;12.442;2023-04-01T17:31:19;2.81;82.94
69503;SHT31;56704;54.242;12.442;2023-04-01T17:33:58;2.83;83.34
69503;SHT31;56704;54.242;12.442;2023-04-01T17:36:36;2.77;83.25